sensor_id;sensor_type;location;lat;lon;timestamp;pressure;altitude;pressure_sealevel;temperature;humidity
40612;BME280;26317;44.894;20.286;2024-01-15T00:01:00;99928.41;;;3.09;85.03
40612;BME280;26317;44.894;20.286;2024-01-15T00:03:41;99919.88;;;3.07;84.90
40612;BME280;26317;44.894;20.286;2024-01-15T00:06:15;99923.56;;;3.06;85.03
40612;BME280;26317;44.894;20.286;2024-01-15T00:08:54;99922.75;;;3.05;85.28
40612;BME280;26317;44.894;20.286;2024-01-15T00:11:36;99915.63;;;3.06;85.58
40612;BME280;26317;44.894;20.286;2024-01-15T00:14:28;99928.84;;;3.06;85.22
40612;BME280;26317;44.894;20.286;2024-01-15T00:17:04;99928.84;;;3.06;85.59
40612;BME280;26317;44.894;20.286;2024-01-15T00:19:43;99922.44;;;3.02;85.51
40612;BME280;26317;44.894;20.286;2024-01-15T00:22:29;99926.09;;;3.01;85.91
40612;BME280;26317;44.894;20.286;2024-01-15T00:25:10;99921.88;;;3.00;86.46
40612;BME280;26317;44.894;20.286;2024-01-15T00:27:45;99924.59;;;3.05;86.72
40612;BME280;26317;44.894;20.286;2024-01-15T00:30:44;99911.94;;;3.07;87.15
40612;BME280;26317;44.894;20.286;2024-01-15T00:33:27;99907.22;;;3.09;86.91
40612;BME280;26317;44.894;20.286;2024-01-15T00:36:05;99892.91;;;3.10;87.46
40612;BME280;26317;44.894;20.286;2024-01-15T00:38:44;99898.22;;;3.10;87.51
40612;BME280;26317;44.894;20.286;2024-01-15T00:41:22;99900.41;;;3.13;88.06
40612;BME280;26317;44.894;20.286;2024-01-15T00:43:55;99881.59;;;3.14;88.22
40612;BME280;26317;44.894;20.286;2024-01-15T00:46:50;99888.34;;;3.22;88.63
40612;BME280;26317;44.894;20.286;2024-01-15T00:49:28;99887.31;;;3.23;88.47
40612;BME280;26317;44.894;20.286;2024-01-15T00:52:04;99893.25;;;3.30;88.35
40612;BME280;26317;44.894;20.286;2024-01-15T00:54:39;99891.75;;;3.34;88.30
40612;BME280;26317;44.894;20.286;2024-01-15T00:57:24;99886.00;;;3.37;87.86
40612;BME280;26317;44.894;20.286;2024-01-15T00:59:59;99895.06;;;3.41;87.45
40612;BME280;26317;44.894;20.286;2024-01-15T01:02:44;99891.13;;;3.44;86.94
40612;BME280;26317;44.894;20.286;2024-01-15T01:05:26;99884.78;;;3.45;86.64
40612;BME280;26317;44.894;20.286;2024-01-15T01:08:07;99885.41;;;3.52;86.52
40612;BME280;26317;44.894;20.286;2024-01-15T01:10:43;99882.53;;;3.53;86.52
40612;BME280;26317;44.894;20.286;2024-01-15T01:13:20;99879.63;;;3.55;86.43
40612;BME280;26317;44.894;20.286;2024-01-15T01:15:56;99873.06;;;3.57;86.20
40612;BME280;26317;44.894;20.286;2024-01-15T01:18:35;99868.31;;;3.59;85.89
40612;BME280;26317;44.894;20.286;2024-01-15T01:21:08;99864.63;;;3.60;85.74
40612;BME280;26317;44.894;20.286;2024-01-15T01:23:51;99862.44;;;3.57;85.92
40612;BME280;26317;44.894;20.286;2024-01-15T01:26:30;99850.31;;;3.61;85.93
40612;BME280;26317;44.894;20.286;2024-01-15T01:29:16;99854.31;;;3.64;85.87
40612;BME280;26317;44.894;20.286;2024-01-15T01:31:53;99853.53;;;3.63;85.71
40612;BME280;26317;44.894;20.286;2024-01-15T01:34:53;99847.19;;;3.64;85.56
40612;BME280;26317;44.894;20.286;2024-01-15T01:37:40;99849.59;;;3.66;85.32
40612;BME280;26317;44.894;20.286;2024-01-15T01:40:15;99850.88;;;3.63;85.10
40612;BME280;26317;44.894;20.286;2024-01-15T01:42:52;99840.53;;;3.62;84.88
40612;BME280;26317;44.894;20.286;2024-01-15T01:45:39;99841.00;;;3.59;84.37
40612;BME280;26317;44.894;20.286;2024-01-15T01:48:18;99834.81;;;3.53;84.75
40612;BME280;26317;44.894;20.286;2024-01-15T01:51:13;99827.81;;;3.47;85.10
40612;BME280;26317;44.894;20.286;2024-01-15T01:53:48;99826.47;;;3.45;85.45
40612;BME280;26317;44.894;20.286;2024-01-15T01:56:34;99829.34;;;3.43;85.64
40612;BME280;26317;44.894;20.286;2024-01-15T01:59:12;99822.94;;;3.39;85.99
40612;BME280;26317;44.894;20.286;2024-01-15T02:01:57;99819.72;;;3.37;86.33
40612;BME280;26317;44.894;20.286;2024-01-15T02:04:36;99818.13;;;3.36;86.67
40612;BME280;26317;44.894;20.286;2024-01-15T02:07:27;99795.97;;;3.26;86.36
40612;BME280;26317;44.894;20.286;2024-01-15T02:10:02;99805.34;;;3.33;86.50
40612;BME280;26317;44.894;20.286;2024-01-15T02:12:42;99805.34;;;3.33;86.53
40612;BME280;26317;44.894;20.286;2024-01-15T02:15:22;99793.13;;;3.32;86.52
40612;BME280;26317;44.894;20.286;2024-01-15T02:18:03;99795.22;;;3.30;86.50
40612;BME280;26317;44.894;20.286;2024-01-15T02:20:52;99787.25;;;3.30;86.28
40612;BME280;26317;44.894;20.286;2024-01-15T02:23:43;99782.75;;;3.31;86.89
40612;BME280;26317;44.894;20.286;2024-01-15T02:26:22;99772.16;;;3.31;86.75
40612;BME280;26317;44.894;20.286;2024-01-15T02:29:07;99764.47;;;3.29;86.68
40612;BME280;26317;44.894;20.286;2024-01-15T02:31:55;99757.56;;;3.28;86.58
40612;BME280;26317;44.894;20.286;2024-01-15T02:34:48;99755.47;;;3.30;86.82
40612;BME280;26317;44.894;20.286;2024-01-15T02:37:33;99752.28;;;3.28;86.82
40612;BME280;26317;44.894;20.286;2024-01-15T02:40:16;99749.38;;;3.30;86.86
40612;BME280;26317;44.894;20.286;2024-01-15T02:42:59;99744.09;;;3.30;86.77
40612;BME280;26317;44.894;20.286;2024-01-15T02:45:34;99737.19;;;3.29;87.01
40612;BME280;26317;44.894;20.286;2024-01-15T02:48:30;99731.38;;;3.32;87.29
40612;BME280;26317;44.894;20.286;2024-01-15T02:51:08;99724.00;;;3.34;87.07
40612;BME280;26317;44.894;20.286;2024-01-15T02:56:35;99718.53;;;3.40;87.15
40612;BME280;26317;44.894;20.286;2024-01-15T02:59:11;99729.19;;;3.45;87.12
40612;BME280;26317;44.894;20.286;2024-01-15T03:01:44;99720.75;;;3.48;87.28
40612;BME280;26317;44.894;20.286;2024-01-15T03:04:27;99716.34;;;3.54;87.16
40612;BME280;26317;44.894;20.286;2024-01-15T03:07:04;99713.19;;;3.57;87.08
40612;BME280;26317;44.894;20.286;2024-01-15T03:09:47;99707.38;;;3.60;86.54
40612;BME280;26317;44.894;20.286;2024-01-15T03:12:33;99701.63;;;3.63;86.87
40612;BME280;26317;44.894;20.286;2024-01-15T03:15:12;99701.91;;;3.66;86.89
40612;BME280;26317;44.894;20.286;2024-01-15T03:17:49;99696.13;;;3.69;86.77
40612;BME280;26317;44.894;20.286;2024-01-15T03:20:31;99696.19;;;3.75;86.74
40612;BME280;26317;44.894;20.286;2024-01-15T03:23:20;99679.22;;;3.76;86.60
40612;BME280;26317;44.894;20.286;2024-01-15T03:25:55;99671.81;;;3.78;86.57
40612;BME280;26317;44.894;20.286;2024-01-15T03:28:41;99668.13;;;3.79;86.62
40612;BME280;26317;44.894;20.286;2024-01-15T03:31:16;99658.84;;;3.81;86.72
40612;BME280;26317;44.894;20.286;2024-01-15T03:34:00;99650.91;;;3.81;86.76
40612;BME280;26317;44.894;20.286;2024-01-15T03:36:36;99635.28;;;3.85;86.20
40612;BME280;26317;44.894;20.286;2024-01-15T03:39:36;99639.03;;;3.84;86.43
40612;BME280;26317;44.894;20.286;2024-01-15T03:42:09;99628.94;;;3.86;86.22
40612;BME280;26317;44.894;20.286;2024-01-15T03:45:00;99643.81;;;3.87;86.42
40612;BME280;26317;44.894;20.286;2024-01-15T03:47:39;99631.66;;;3.91;86.81
40612;BME280;26317;44.894;20.286;2024-01-15T03:50:24;99611.75;;;3.88;86.75
40612;BME280;26317;44.894;20.286;2024-01-15T03:53:16;99626.41;;;3.96;86.65
40612;BME280;26317;44.894;20.286;2024-01-15T03:55:53;99623.00;;;4.00;86.51
40612;BME280;26317;44.894;20.286;2024-01-15T03:58:34;99618.31;;;4.07;86.43
40612;BME280;26317;44.894;20.286;2024-01-15T04:01:28;99610.34;;;4.07;86.39
40612;BME280;26317;44.894;20.286;2024-01-15T04:04:07;99607.19;;;4.10;86.56
40612;BME280;26317;44.894;20.286;2024-01-15T04:06:48;99607.75;;;4.12;86.78
40612;BME280;26317;44.894;20.286;2024-01-15T04:09:24;99598.47;;;4.15;86.71
40612;BME280;26317;44.894;20.286;2024-01-15T04:12:08;99597.47;;;4.21;87.25
40612;BME280;26317;44.894;20.286;2024-01-15T04:14:42;99590.56;;;4.20;87.44
40612;BME280;26317;44.894;20.286;2024-01-15T04:17:33;99586.88;;;4.21;87.44
40612;BME280;26317;44.894;20.286;2024-01-15T04:20:13;99577.03;;;4.22;87.12
40612;BME280;26317;44.894;20.286;2024-01-15T04:22:54;99589.53;;;4.26;86.74
40612;BME280;26317;44.894;20.286;2024-01-15T04:25:34;99583.19;;;4.27;86.67
40612;BME280;26317;44.894;20.286;2024-01-15T04:28:18;99583.75;;;4.29;86.76
40612;BME280;26317;44.894;20.286;2024-01-15T04:30:55;99573.13;;;4.29;86.36
40612;BME280;26317;44.894;20.286;2024-01-15T04:33:40;99574.47;;;4.32;86.26
40612;BME280;26317;44.894;20.286;2024-01-15T04:36:14;99574.22;;;4.33;85.82
40612;BME280;26317;44.894;20.286;2024-01-15T04:38:50;99568.88;;;4.28;84.99
40612;BME280;26317;44.894;20.286;2024-01-15T04:41:26;99576.88;;;4.33;84.75
40612;BME280;26317;44.894;20.286;2024-01-15T04:44:04;99575.78;;;4.34;84.40
40612;BME280;26317;44.894;20.286;2024-01-15T04:46:54;99571.28;;;4.35;84.46
40612;BME280;26317;44.894;20.286;2024-01-15T04:49:41;99560.09;;;4.28;84.71
40612;BME280;26317;44.894;20.286;2024-01-15T04:52:23;99566.22;;;4.28;84.82
40612;BME280;26317;44.894;20.286;2024-01-15T04:55:01;99565.97;;;4.30;85.11
40612;BME280;26317;44.894;20.286;2024-01-15T04:57:35;99570.19;;;4.31;85.14
40612;BME280;26317;44.894;20.286;2024-01-15T05:00:14;99565.16;;;4.29;85.04
40612;BME280;26317;44.894;20.286;2024-01-15T05:02:59;99566.75;;;4.30;84.96
40612;BME280;26317;44.894;20.286;2024-01-15T05:05:44;99556.41;;;4.29;84.95
40612;BME280;26317;44.894;20.286;2024-01-15T05:08:24;99554.78;;;4.28;84.76
40612;BME280;26317;44.894;20.286;2024-01-15T05:11:02;99563.00;;;4.26;84.99
40612;BME280;26317;44.894;20.286;2024-01-15T05:13:54;99561.41;;;4.25;85.00
40612;BME280;26317;44.894;20.286;2024-01-15T05:16:39;99566.72;;;4.25;85.09
40612;BME280;26317;44.894;20.286;2024-01-15T05:19:36;99571.22;;;4.25;85.18
40612;BME280;26317;44.894;20.286;2024-01-15T05:22:19;99566.72;;;4.25;85.39
40612;BME280;26317;44.894;20.286;2024-01-15T05:24:56;99552.09;;;4.23;85.77
40612;BME280;26317;44.894;20.286;2024-01-15T05:27:35;99553.75;;;4.29;86.20
40612;BME280;26317;44.894;20.286;2024-01-15T05:30:18;99555.09;;;4.31;86.33
40612;BME280;26317;44.894;20.286;2024-01-15T05:33:14;99552.41;;;4.31;85.73
40612;BME280;26317;44.894;20.286;2024-01-15T05:35:54;99547.13;;;4.31;85.81
40612;BME280;26317;44.894;20.286;2024-01-15T05:38:33;99551.38;;;4.32;85.89
40612;BME280;26317;44.894;20.286;2024-01-15T05:44:01;99559.06;;;4.29;86.60
40612;BME280;26317;44.894;20.286;2024-01-15T05:46:45;99544.97;;;4.28;86.26
40612;BME280;26317;44.894;20.286;2024-01-15T05:49:26;99555.03;;;4.26;86.43
40612;BME280;26317;44.894;20.286;2024-01-15T05:52:11;99554.00;;;4.27;86.60
40612;BME280;26317;44.894;20.286;2024-01-15T05:54:54;99548.69;;;4.27;86.67
40612;BME280;26317;44.894;20.286;2024-01-15T05:57:31;99533.81;;;4.26;86.62
40612;BME280;26317;44.894;20.286;2024-01-15T06:00:10;99521.34;;;4.27;86.71
40612;BME280;26317;44.894;20.286;2024-01-15T06:02:44;99521.09;;;4.28;86.75
40612;BME280;26317;44.894;20.286;2024-01-15T06:05:30;99502.75;;;4.27;86.66
40612;BME280;26317;44.894;20.286;2024-01-15T06:08:12;99477.53;;;4.24;86.39
40612;BME280;26317;44.894;20.286;2024-01-15T06:11:01;99474.59;;;4.21;87.16
40612;BME280;26317;44.894;20.286;2024-01-15T06:13:35;99459.44;;;4.16;87.20
40612;BME280;26317;44.894;20.286;2024-01-15T06:16:15;99460.50;;;4.15;86.75
40612;BME280;26317;44.894;20.286;2024-01-15T06:18:48;99448.78;;;4.11;86.90
40612;BME280;26317;44.894;20.286;2024-01-15T06:21:22;99444.56;;;4.15;87.25
40612;BME280;26317;44.894;20.286;2024-01-15T06:23:58;99446.97;;;4.16;87.28
40612;BME280;26317;44.894;20.286;2024-01-15T06:26:43;99459.69;;;4.14;87.06
40612;BME280;26317;44.894;20.286;2024-01-15T06:29:15;99460.78;;;4.18;86.88
40612;BME280;26317;44.894;20.286;2024-01-15T06:31:58;99472.22;;;4.24;86.65
40612;BME280;26317;44.894;20.286;2024-01-15T06:34:35;99468.25;;;4.27;86.29
40612;BME280;26317;44.894;20.286;2024-01-15T06:37:11;99474.94;;;4.34;86.12
40612;BME280;26317;44.894;20.286;2024-01-15T06:39:50;99473.41;;;4.38;86.06
40612;BME280;26317;44.894;20.286;2024-01-15T06:42:32;99481.34;;;4.38;85.63
40612;BME280;26317;44.894;20.286;2024-01-15T06:45:10;99486.94;;;4.42;85.74
40612;BME280;26317;44.894;20.286;2024-01-15T06:47:50;99481.94;;;4.45;85.66
40612;BME280;26317;44.894;20.286;2024-01-15T06:50:25;99486.19;;;4.51;85.46
40612;BME280;26317;44.894;20.286;2024-01-15T06:53:28;99477.75;;;4.54;85.43
40612;BME280;26317;44.894;20.286;2024-01-15T06:56:10;99474.31;;;4.59;85.23
40612;BME280;26317;44.894;20.286;2024-01-15T06:58:54;99479.91;;;4.62;84.95
40612;BME280;26317;44.894;20.286;2024-01-15T07:01:38;99479.91;;;4.68;84.82
40612;BME280;26317;44.894;20.286;2024-01-15T07:04:15;99476.19;;;4.69;84.83
40612;BME280;26317;44.894;20.286;2024-01-15T07:06:53;99471.97;;;4.73;84.83
40612;BME280;26317;44.894;20.286;2024-01-15T07:09:32;99477.31;;;4.78;84.58
40612;BME280;26317;44.894;20.286;2024-01-15T07:12:12;99489.53;;;4.79;84.61
40612;BME280;26317;44.894;20.286;2024-01-15T07:14:55;99487.97;;;4.83;84.17
40612;BME280;26317;44.894;20.286;2024-01-15T07:17:43;99477.34;;;4.83;84.02
40612;BME280;26317;44.894;20.286;2024-01-15T07:20:22;99477.38;;;4.88;83.94
40612;BME280;26317;44.894;20.286;2024-01-15T07:23:01;99479.25;;;4.92;84.24
40612;BME280;26317;44.894;20.286;2024-01-15T07:25:41;99476.88;;;4.96;84.34
40612;BME280;26317;44.894;20.286;2024-01-15T07:28:38;99480.63;;;5.00;84.10
40612;BME280;26317;44.894;20.286;2024-01-15T07:31:27;99475.59;;;5.08;84.21
40612;BME280;26317;44.894;20.286;2024-01-15T07:34:17;99477.47;;;5.13;83.76
40612;BME280;26317;44.894;20.286;2024-01-15T07:39:45;99470.91;;;5.46;87.15
40612;BME280;26317;44.894;20.286;2024-01-15T07:42:27;99469.88;;;5.82;86.34
40612;BME280;26317;44.894;20.286;2024-01-15T07:45:15;99475.75;;;6.10;83.21
40612;BME280;26317;44.894;20.286;2024-01-15T07:47:59;99476.81;;;6.34;83.45
40612;BME280;26317;44.894;20.286;2024-01-15T07:50:36;99490.09;;;6.54;81.03
40612;BME280;26317;44.894;20.286;2024-01-15T07:53:11;99482.63;;;6.61;80.58
40612;BME280;26317;44.894;20.286;2024-01-15T07:55:48;99492.47;;;6.76;79.95
40612;BME280;26317;44.894;20.286;2024-01-15T07:58:25;99486.81;;;6.87;79.23
40612;BME280;26317;44.894;20.286;2024-01-15T08:01:05;99491.03;;;7.04;77.27
40612;BME280;26317;44.894;20.286;2024-01-15T08:03:51;99473.66;;;7.06;77.92
40612;BME280;26317;44.894;20.286;2024-01-15T08:06:34;99480.28;;;7.19;77.86
40612;BME280;26317;44.894;20.286;2024-01-15T08:09:11;99487.19;;;7.25;76.21
40612;BME280;26317;44.894;20.286;2024-01-15T08:11:46;99486.94;;;7.21;76.27
40612;BME280;26317;44.894;20.286;2024-01-15T08:14:24;99486.97;;;7.11;76.87
40612;BME280;26317;44.894;20.286;2024-01-15T08:17:08;99489.66;;;7.06;77.25
40612;BME280;26317;44.894;20.286;2024-01-15T08:19:55;99469.44;;;7.00;78.15
40612;BME280;26317;44.894;20.286;2024-01-15T08:22:36;99478.53;;;6.94;79.51
40612;BME280;26317;44.894;20.286;2024-01-15T08:25:21;99474.25;;;6.93;80.08
40612;BME280;26317;44.894;20.286;2024-01-15T08:27:59;99477.22;;;6.91;79.27
40612;BME280;26317;44.894;20.286;2024-01-15T08:30:36;99467.88;;;6.89;79.05
40612;BME280;26317;44.894;20.286;2024-01-15T08:33:13;99476.97;;;6.83;78.85
40612;BME280;26317;44.894;20.286;2024-01-15T08:36:12;99471.16;;;6.71;78.54
40612;BME280;26317;44.894;20.286;2024-01-15T08:38:50;99466.63;;;6.66;78.53
40612;BME280;26317;44.894;20.286;2024-01-15T08:41:25;99458.91;;;6.65;78.71
40612;BME280;26317;44.894;20.286;2024-01-15T08:44:15;99460.75;;;6.64;78.69
40612;BME280;26317;44.894;20.286;2024-01-15T08:46:54;99465.81;;;6.66;78.78
40612;BME280;26317;44.894;20.286;2024-01-15T08:49:35;99464.78;;;6.67;79.01
40612;BME280;26317;44.894;20.286;2024-01-15T08:52:20;99460.50;;;6.66;78.52
40612;BME280;26317;44.894;20.286;2024-01-15T08:54:56;99456.22;;;6.65;78.67
40612;BME280;26317;44.894;20.286;2024-01-15T08:57:52;99463.72;;;6.68;78.88
40612;BME280;26317;44.894;20.286;2024-01-15T09:00:31;99469.53;;;6.70;79.42
40612;BME280;26317;44.894;20.286;2024-01-15T09:03:07;99475.94;;;6.74;79.29
40612;BME280;26317;44.894;20.286;2024-01-15T09:05:54;99484.72;;;6.79;79.74
40612;BME280;26317;44.894;20.286;2024-01-15T09:08:49;99481.00;;;6.80;79.91
40612;BME280;26317;44.894;20.286;2024-01-15T09:11:25;99489.81;;;6.71;78.67
40612;BME280;26317;44.894;20.286;2024-01-15T09:14:00;99492.19;;;6.72;77.74
40612;BME280;26317;44.894;20.286;2024-01-15T09:16:34;99497.00;;;6.70;77.40
40612;BME280;26317;44.894;20.286;2024-01-15T09:19:15;99480.78;;;6.52;77.31
40612;BME280;26317;44.894;20.286;2024-01-15T09:22:07;99490.63;;;6.56;77.87
40612;BME280;26317;44.894;20.286;2024-01-15T09:24:48;99484.78;;;6.59;78.64
40612;BME280;26317;44.894;20.286;2024-01-15T09:27:23;99483.19;;;6.48;78.52
40612;BME280;26317;44.894;20.286;2024-01-15T09:30:10;99490.16;;;6.29;79.39
40612;BME280;26317;44.894;20.286;2024-01-15T09:32:53;99485.88;;;6.28;79.91
40612;BME280;26317;44.894;20.286;2024-01-15T09:35:30;99481.88;;;6.10;81.72
40612;BME280;26317;44.894;20.286;2024-01-15T09:38:05;99481.66;;;5.96;81.26
40612;BME280;26317;44.894;20.286;2024-01-15T09:40:54;99480.78;;;5.86;81.74
40612;BME280;26317;44.894;20.286;2024-01-15T09:43:37;99465.38;;;5.78;82.77
40612;BME280;26317;44.894;20.286;2024-01-15T09:46:14;99470.41;;;5.74;82.77
40612;BME280;26317;44.894;20.286;2024-01-15T09:49:14;99469.63;;;5.79;82.98
40612;BME280;26317;44.894;20.286;2024-01-15T09:51:55;99462.16;;;5.81;82.98
40612;BME280;26317;44.894;20.286;2024-01-15T09:54:43;99455.25;;;5.80;82.53
40612;BME280;26317;44.894;20.286;2024-01-15T09:57:26;99454.97;;;5.76;82.79
40612;BME280;26317;44.894;20.286;2024-01-15T10:00:15;99462.69;;;5.78;82.94
40612;BME280;26317;44.894;20.286;2024-01-15T10:03:06;99459.00;;;5.84;83.59
40612;BME280;26317;44.894;20.286;2024-01-15T10:05:44;99450.72;;;5.85;83.68
40612;BME280;26317;44.894;20.286;2024-01-15T10:08:28;99446.25;;;5.96;83.25
40612;BME280;26317;44.894;20.286;2024-01-15T10:11:04;99433.47;;;6.03;82.76
40612;BME280;26317;44.894;20.286;2024-01-15T10:13:55;99417.50;;;6.13;83.19
40612;BME280;26317;44.894;20.286;2024-01-15T10:16:37;99432.88;;;6.36;83.39
40612;BME280;26317;44.894;20.286;2024-01-15T10:19:15;99416.91;;;6.36;82.75
40612;BME280;26317;44.894;20.286;2024-01-15T10:21:51;99417.13;;;6.45;81.88
40612;BME280;26317;44.894;20.286;2024-01-15T10:24:31;99416.03;;;6.56;81.76
40612;BME280;26317;44.894;20.286;2024-01-15T10:27:10;99407.78;;;6.58;81.61
40612;BME280;26317;44.894;20.286;2024-01-15T10:29:52;99405.34;;;6.66;81.55
40612;BME280;26317;44.894;20.286;2024-01-15T10:32:33;99400.81;;;6.72;81.44
40612;BME280;26317;44.894;20.286;2024-01-15T10:35:21;99403.94;;;6.84;81.54
40612;BME280;26317;44.894;20.286;2024-01-15T10:37:57;99397.25;;;6.91;80.92
40612;BME280;26317;44.894;20.286;2024-01-15T10:40:33;99405.81;;;6.88;79.08
40612;BME280;26317;44.894;20.286;2024-01-15T10:43:17;99411.63;;;6.90;79.12
40612;BME280;26317;44.894;20.286;2024-01-15T10:46:12;99398.38;;;6.80;77.85
40612;BME280;26317;44.894;20.286;2024-01-15T10:48:56;99414.31;;;6.90;78.79
40612;BME280;26317;44.894;20.286;2024-01-15T10:51:38;99405.50;;;6.95;79.10
40612;BME280;26317;44.894;20.286;2024-01-15T10:54:18;99403.28;;;7.07;78.56
40612;BME280;26317;44.894;20.286;2024-01-15T10:57:17;99400.34;;;7.14;78.76
40612;BME280;26317;44.894;20.286;2024-01-15T10:59:56;99397.59;;;7.24;78.20
40612;BME280;26317;44.894;20.286;2024-01-15T11:02:43;99403.66;;;7.34;78.91
40612;BME280;26317;44.894;20.286;2024-01-15T11:05:22;99402.81;;;7.39;77.89
40612;BME280;26317;44.894;20.286;2024-01-15T11:08:01;99402.53;;;7.46;76.54
40612;BME280;26317;44.894;20.286;2024-01-15T11:10:49;99396.59;;;7.54;76.62
40612;BME280;26317;44.894;20.286;2024-01-15T11:13:42;99404.81;;;7.57;76.74
40612;BME280;26317;44.894;20.286;2024-01-15T11:19:49;99398.06;;;7.70;76.59
40612;BME280;26317;44.894;20.286;2024-01-15T11:22:52;99400.72;;;7.70;76.83
40612;BME280;26317;44.894;20.286;2024-01-15T11:25:42;99390.63;;;7.67;77.73
40612;BME280;26317;44.894;20.286;2024-01-15T11:28:49;99386.88;;;7.68;77.40
40612;BME280;26317;44.894;20.286;2024-01-15T11:31:29;99394.31;;;7.71;77.89
40612;BME280;26317;44.894;20.286;2024-01-15T11:34:49;99390.06;;;7.70;78.32
40612;BME280;26317;44.894;20.286;2024-01-15T11:37:21;99381.00;;;7.66;78.60
40612;BME280;26317;44.894;20.286;2024-01-15T11:40:09;99386.69;;;7.59;79.15
40612;BME280;26317;44.894;20.286;2024-01-15T11:42:48;99377.09;;;7.53;79.82
40612;BME280;26317;44.894;20.286;2024-01-15T11:45:26;99373.13;;;7.51;79.19
40612;BME280;26317;44.894;20.286;2024-01-15T11:48:19;99360.34;;;7.48;79.34
40612;BME280;26317;44.894;20.286;2024-01-15T11:51:00;99353.47;;;7.42;79.75
40612;BME280;26317;44.894;20.286;2024-01-15T11:53:45;99338.56;;;7.35;81.02
40612;BME280;26317;44.894;20.286;2024-01-15T11:56:32;99356.13;;;7.42;81.68
40612;BME280;26317;44.894;20.286;2024-01-15T11:59:12;99358.00;;;7.41;81.60
40612;BME280;26317;44.894;20.286;2024-01-15T12:01:49;99340.97;;;7.37;81.31
40612;BME280;26317;44.894;20.286;2024-01-15T12:04:28;99335.63;;;7.37;82.03
40612;BME280;26317;44.894;20.286;2024-01-15T12:07:15;99332.16;;;7.36;82.74
40612;BME280;26317;44.894;20.286;2024-01-15T12:10:08;99326.31;;;7.34;83.14
40612;BME280;26317;44.894;20.286;2024-01-15T12:13:02;99326.78;;;7.42;83.16
40612;BME280;26317;44.894;20.286;2024-01-15T12:15:56;99327.84;;;7.40;82.67
40612;BME280;26317;44.894;20.286;2024-01-15T12:18:47;99323.44;;;7.26;80.80
40612;BME280;26317;44.894;20.286;2024-01-15T12:21:26;99317.84;;;7.22;80.92
40612;BME280;26317;44.894;20.286;2024-01-15T12:24:18;99305.38;;;7.18;80.41
40612;BME280;26317;44.894;20.286;2024-01-15T12:27:12;99298.16;;;7.18;80.59
40612;BME280;26317;44.894;20.286;2024-01-15T12:29:52;99291.19;;;7.22;80.93
40612;BME280;26317;44.894;20.286;2024-01-15T12:32:31;99295.41;;;7.28;82.07
40612;BME280;26317;44.894;20.286;2024-01-15T12:35:18;99272.72;;;7.31;82.55
40612;BME280;26317;44.894;20.286;2024-01-15T12:37:53;99271.94;;;7.30;83.11
40612;BME280;26317;44.894;20.286;2024-01-15T12:40:36;99267.38;;;7.31;83.05
40612;BME280;26317;44.894;20.286;2024-01-15T12:43:18;99265.56;;;7.26;83.45
40612;BME280;26317;44.894;20.286;2024-01-15T12:45:58;99257.06;;;7.24;84.20
40612;BME280;26317;44.894;20.286;2024-01-15T12:48:35;99252.28;;;7.21;83.75
40612;BME280;26317;44.894;20.286;2024-01-15T12:51:14;99244.31;;;7.16;82.82
40612;BME280;26317;44.894;20.286;2024-01-15T12:53:54;99241.69;;;7.11;82.10
40612;BME280;26317;44.894;20.286;2024-01-15T12:56:42;99247.28;;;7.10;81.89
40612;BME280;26317;44.894;20.286;2024-01-15T12:59:27;99242.25;;;7.08;81.81
40612;BME280;26317;44.894;20.286;2024-01-15T13:02:06;99234.31;;;7.03;81.96
40612;BME280;26317;44.894;20.286;2024-01-15T13:04:40;99229.81;;;6.99;82.35
40612;BME280;26317;44.894;20.286;2024-01-15T13:07:27;99214.38;;;6.96;82.67
40612;BME280;26317;44.894;20.286;2024-01-15T13:10:08;99218.91;;;6.95;82.53
40612;BME280;26317;44.894;20.286;2024-01-15T13:12:46;99203.50;;;6.87;82.95
40612;BME280;26317;44.894;20.286;2024-01-15T13:15:39;99210.47;;;6.83;83.87
40612;BME280;26317;44.894;20.286;2024-01-15T13:18:17;99216.88;;;6.82;84.34
40612;BME280;26317;44.894;20.286;2024-01-15T13:20:55;99213.16;;;6.83;84.36
40612;BME280;26317;44.894;20.286;2024-01-15T13:23:43;99212.34;;;6.82;84.88
40612;BME280;26317;44.894;20.286;2024-01-15T13:26:21;99198.50;;;6.80;84.94
40612;BME280;26317;44.894;20.286;2024-01-15T13:28:57;99200.09;;;6.81;85.42
40612;BME280;26317;44.894;20.286;2024-01-15T13:31:56;99186.53;;;6.78;86.19
40612;BME280;26317;44.894;20.286;2024-01-15T13:34:36;99197.16;;;6.83;86.40
40612;BME280;26317;44.894;20.286;2024-01-15T13:37:11;99193.13;;;6.85;86.80
40612;BME280;26317;44.894;20.286;2024-01-15T13:39:46;99194.50;;;6.83;87.07
40612;BME280;26317;44.894;20.286;2024-01-15T13:42:21;99211.53;;;6.82;87.58
40612;BME280;26317;44.894;20.286;2024-01-15T13:45:00;99256.94;;;6.72;87.15
40612;BME280;26317;44.894;20.286;2024-01-15T13:47:46;99259.06;;;6.21;87.34
40612;BME280;26317;44.894;20.286;2024-01-15T13:50:28;99266.88;;;5.82;88.32
40612;BME280;26317;44.894;20.286;2024-01-15T13:53:02;99276.00;;;5.50;88.61
40612;BME280;26317;44.894;20.286;2024-01-15T13:55:44;99267.00;;;5.21;90.55
40612;BME280;26317;44.894;20.286;2024-01-15T13:58:24;99280.00;;;5.28;92.29
40612;BME280;26317;44.894;20.286;2024-01-15T14:04:00;99274.94;;;4.96;94.85
40612;BME280;26317;44.894;20.286;2024-01-15T14:06:40;99272.28;;;5.01;94.96
40612;BME280;26317;44.894;20.286;2024-01-15T14:09:18;99273.88;;;4.97;94.89
40612;BME280;26317;44.894;20.286;2024-01-15T14:12:04;99274.41;;;4.89;96.07
40612;BME280;26317;44.894;20.286;2024-01-15T14:14:51;99271.50;;;4.90;96.40
40612;BME280;26317;44.894;20.286;2024-01-15T14:17:24;99276.28;;;4.88;96.72
40612;BME280;26317;44.894;20.286;2024-01-15T14:20:10;99265.09;;;4.76;96.63
40612;BME280;26317;44.894;20.286;2024-01-15T14:22:56;99269.88;;;4.79;96.68
40612;BME280;26317;44.894;20.286;2024-01-15T14:25:42;99274.09;;;4.65;97.42
40612;BME280;26317;44.894;20.286;2024-01-15T14:28:16;99268.50;;;4.56;98.22
40612;BME280;26317;44.894;20.286;2024-01-15T14:30:53;99265.88;;;4.61;98.18
40612;BME280;26317;44.894;20.286;2024-01-15T14:33:31;99271.38;;;4.40;99.38